createdAt,value
2022-12-27T00:02:26.478Z,87.83
2022-12-27T00:04:54.302Z,88.26
2022-12-27T00:07:21.227Z,87.94
2022-12-27T00:09:48.369Z,88.58
2022-12-27T00:12:15.328Z,88.44
2022-12-27T00:14:42.444Z,88.03
2022-12-27T00:17:09.359Z,87.79
2022-12-27T00:19:36.557Z,87.70
2022-12-27T00:22:05.383Z,88.03
2022-12-27T00:24:32.537Z,87.85
2022-12-27T00:26:59.549Z,88.01
2022-12-27T00:29:26.613Z,88.12
2022-12-27T00:31:53.515Z,88.17
2022-12-27T00:34:20.791Z,87.90
2022-12-27T00:36:47.968Z,88.26
2022-12-27T00:39:14.849Z,88.50
2022-12-27T00:41:41.759Z,88.93
2022-12-27T00:44:09.432Z,89.19
2022-12-27T00:46:36.697Z,89.15
2022-12-27T00:49:03.677Z,89.24
2022-12-27T00:51:30.679Z,89.49
2022-12-27T00:53:58.104Z,89.51
2022-12-27T00:56:30.979Z,89.54
2022-12-27T00:59:00.955Z,89.56
2022-12-27T01:01:33.137Z,89.61
2022-12-27T01:04:01.207Z,89.62
2022-12-27T01:06:32.289Z,89.79
2022-12-27T01:09:00.860Z,89.24
2022-12-27T01:11:28.588Z,89.11
2022-12-27T01:13:57.591Z,89.00
2022-12-27T01:16:26.339Z,88.65
2022-12-27T01:18:53.735Z,88.51
2022-12-27T01:21:25.022Z,88.63
2022-12-27T01:23:52.362Z,88.52
2022-12-27T01:26:24.173Z,88.47
2022-12-27T01:28:56.023Z,88.24
2022-12-27T01:31:28.242Z,88.34
2022-12-27T01:33:57.717Z,88.51
2022-12-27T01:36:26.345Z,88.61
2022-12-27T01:38:53.684Z,88.91
2022-12-27T01:41:47.310Z,88.93
2022-12-27T01:44:51.492Z,89.80
2022-12-27T01:47:26.839Z,89.66
2022-12-27T01:50:20.151Z,89.45
2022-12-27T01:52:51.119Z,89.19
2022-12-27T01:55:23.100Z,89.46
2022-12-27T01:57:52.270Z,89.19
2022-12-27T02:00:19.688Z,89.23
2022-12-27T02:02:47.072Z,89.37
2022-12-27T02:05:17.459Z,89.32
2022-12-27T02:08:28.885Z,89.39
2022-12-27T02:10:57.571Z,89.27
2022-12-27T02:13:24.870Z,89.12
2022-12-27T02:15:52.085Z,89.05
2022-12-27T02:18:19.137Z,89.05
2022-12-27T02:21:07.543Z,89.25
2022-12-27T02:24:06.890Z,88.99
2022-12-27T02:26:53.540Z,89.11
2022-12-27T02:29:32.714Z,89.28
2022-12-27T02:32:24.245Z,89.26
2022-12-27T02:35:19.660Z,89.42
2022-12-27T02:37:52.997Z,89.63
2022-12-27T02:40:42.015Z,89.66
2022-12-27T02:43:31.265Z,89.58
2022-12-27T02:46:23.060Z,89.44
2022-12-27T02:49:16.811Z,89.19
2022-12-27T02:52:35.851Z,89.51
2022-12-27T02:55:05.816Z,89.21
2022-12-27T02:57:48.325Z,89.44
2022-12-27T03:00:42.907Z,89.36
2022-12-27T03:03:49.560Z,89.48
2022-12-27T03:06:40.848Z,89.52
2022-12-27T03:09:38.741Z,89.40
2022-12-27T03:12:33.738Z,89.25
2022-12-27T03:15:30.456Z,89.13
2022-12-27T03:18:11.567Z,88.99
2022-12-27T03:21:00.536Z,88.66
2022-12-27T03:23:47.134Z,88.87
2022-12-27T03:26:15.938Z,88.89
2022-12-27T03:29:03.565Z,88.73
2022-12-27T03:31:55.298Z,88.78
2022-12-27T03:34:35.741Z,88.51
2022-12-27T03:37:34.869Z,88.62
2022-12-27T03:40:17.942Z,89.00
2022-12-27T03:43:10.346Z,88.86
2022-12-27T03:46:35.281Z,88.96
2022-12-27T03:49:30.549Z,88.93
2022-12-27T03:52:45.846Z,89.39
2022-12-27T03:55:13.497Z,89.51
2022-12-27T03:57:40.665Z,90.05
2022-12-27T04:00:09.090Z,90.17
2022-12-27T04:02:43.872Z,90.02
2022-12-27T04:05:11.880Z,90.03
2022-12-27T04:07:38.839Z,89.92
2022-12-27T04:10:24.857Z,89.66
2022-12-27T04:13:10.394Z,89.16
2022-12-27T04:15:56.012Z,89.50
2022-12-27T04:18:41.429Z,89.85
2022-12-27T04:21:27.812Z,89.88
2022-12-27T04:24:13.365Z,90.01
2022-12-27T04:26:59.001Z,89.89
2022-12-27T04:29:44.728Z,90.19
2022-12-27T04:32:29.934Z,90.10
2022-12-27T04:34:57.061Z,90.28
2022-12-27T04:37:24.246Z,90.41
2022-12-27T04:40:09.767Z,90.27
2022-12-27T04:42:57.223Z,90.10
2022-12-27T04:45:43.124Z,89.99
2022-12-27T04:48:33.914Z,89.71
2022-12-27T04:51:19.976Z,89.57
2022-12-27T04:54:05.517Z,89.54
2022-12-27T04:56:32.617Z,89.29
2022-12-27T04:59:18.095Z,89.25
2022-12-27T05:02:03.685Z,88.84
2022-12-27T05:04:33.007Z,89.15
2022-12-27T05:07:20.612Z,89.07
2022-12-27T05:10:06.770Z,89.16
2022-12-27T05:12:52.722Z,89.29
2022-12-27T05:15:19.661Z,89.40
2022-12-27T05:17:46.683Z,89.84
2022-12-27T05:20:14.801Z,90.35
2022-12-27T05:23:00.426Z,90.87
2022-12-27T05:25:37.383Z,90.98
2022-12-27T05:28:06.752Z,90.94
2022-12-27T05:30:35.022Z,90.73
2022-12-27T05:33:02.735Z,91.00
2022-12-27T05:35:30.748Z,91.11
2022-12-27T05:37:57.880Z,91.32
2022-12-27T05:40:25.650Z,91.44
2022-12-27T05:42:53.279Z,91.68
2022-12-27T05:45:20.755Z,91.72
2022-12-27T05:47:48.087Z,92.29
2022-12-27T05:50:15.056Z,92.49
2022-12-27T05:52:41.937Z,92.60
2022-12-27T05:55:09.451Z,92.46
2022-12-27T05:57:36.342Z,92.40
2022-12-27T06:00:05.601Z,92.20
2022-12-27T06:02:40.948Z,91.94
2022-12-27T06:05:09.481Z,91.96
2022-12-27T06:07:38.001Z,91.50
2022-12-27T06:10:07.049Z,91.34
2022-12-27T06:12:34.084Z,91.10
2022-12-27T06:15:01.234Z,90.80
2022-12-27T06:17:30.445Z,90.74
2022-12-27T06:19:57.800Z,90.46
2022-12-27T06:22:25.006Z,90.36
2022-12-27T06:24:52.024Z,90.31
2022-12-27T06:27:19.213Z,90.26
2022-12-27T06:29:46.241Z,90.52
2022-12-27T06:32:13.418Z,90.27
2022-12-27T06:34:40.509Z,90.32
2022-12-27T06:37:07.454Z,90.50
2022-12-27T06:39:34.569Z,90.04
2022-12-27T06:42:01.666Z,90.16
2022-12-27T06:44:28.772Z,90.26
2022-12-27T06:46:55.653Z,90.32
2022-12-27T06:49:22.643Z,90.04
2022-12-27T06:51:55.690Z,89.80
2022-12-27T06:54:26.358Z,89.84
2022-12-27T06:56:53.354Z,89.79
2022-12-27T06:59:20.422Z,89.87
2022-12-27T07:01:47.524Z,89.76
2022-12-27T07:04:14.828Z,90.07
2022-12-27T07:06:41.824Z,89.71
2022-12-27T07:09:08.921Z,89.84
2022-12-27T07:11:37.131Z,90.18
2022-12-27T07:14:04.789Z,90.05
2022-12-27T07:16:32.152Z,89.90
2022-12-27T07:19:00.195Z,89.70
2022-12-27T07:21:29.122Z,89.56
2022-12-27T07:23:57.005Z,89.15
2022-12-27T07:26:30.233Z,88.56
2022-12-27T07:29:00.084Z,88.56
2022-12-27T07:31:29.942Z,88.47
2022-12-27T07:33:58.386Z,88.29
2022-12-27T07:36:28.595Z,88.15
2022-12-27T07:38:56.281Z,88.35
2022-12-27T07:41:24.751Z,88.13
2022-12-27T07:43:53.353Z,88.18
2022-12-27T07:46:22.984Z,88.12
2022-12-27T07:48:50.228Z,87.89
2022-12-27T07:51:17.927Z,87.94
2022-12-27T07:53:47.552Z,88.11
2022-12-27T07:56:23.382Z,87.83
2022-12-27T07:58:53.795Z,88.12
2022-12-27T08:01:22.581Z,87.74
2022-12-27T08:03:49.910Z,87.77
2022-12-27T08:06:20.113Z,87.80
2022-12-27T08:08:47.650Z,87.52
2022-12-27T08:11:14.546Z,87.25
2022-12-27T08:13:42.274Z,87.19
2022-12-27T08:16:16.235Z,87.26
2022-12-27T08:18:43.229Z,86.98
2022-12-27T08:21:10.459Z,86.67
2022-12-27T08:23:37.627Z,86.72
2022-12-27T08:26:06.535Z,86.60
2022-12-27T08:28:33.824Z,86.10
2022-12-27T08:31:01.295Z,85.68
2022-12-27T08:33:28.760Z,85.08
2022-12-27T08:35:57.253Z,85.14
2022-12-27T08:38:25.018Z,84.60
2022-12-27T08:40:52.025Z,85.01
2022-12-27T08:43:19.177Z,84.75
2022-12-27T08:45:46.198Z,84.58
2022-12-27T08:48:13.267Z,84.11
2022-12-27T08:50:40.195Z,84.08
2022-12-27T08:53:07.379Z,83.40
2022-12-27T08:55:34.803Z,83.26
2022-12-27T08:58:09.197Z,82.58
2022-12-27T09:00:41.158Z,82.34
2022-12-27T09:03:09.373Z,81.79
2022-12-27T09:05:41.468Z,80.97
2022-12-27T09:08:09.701Z,80.72
2022-12-27T09:10:37.068Z,80.27
2022-12-27T09:13:04.404Z,80.12
2022-12-27T09:15:31.597Z,79.62
2022-12-27T09:17:58.650Z,79.75
2022-12-27T09:20:25.566Z,78.86
2022-12-27T09:22:52.540Z,78.50
2022-12-27T09:25:19.572Z,77.78
2022-12-27T09:27:46.612Z,77.75
2022-12-27T09:30:14.131Z,77.51
2022-12-27T09:32:41.093Z,76.84
2022-12-27T09:35:08.504Z,76.36
2022-12-27T09:37:35.380Z,76.04
2022-12-27T09:40:02.491Z,75.66
2022-12-27T09:45:26.177Z,74.84
2022-12-27T09:47:58.801Z,74.87
2022-12-27T09:50:38.744Z,74.33
2022-12-27T09:53:20.583Z,73.80
2022-12-27T09:55:55.800Z,73.36
2022-12-27T09:58:54.653Z,72.75
2022-12-27T10:01:35.305Z,72.52
2022-12-27T10:04:03.695Z,72.31
2022-12-27T10:06:49.270Z,71.17
2022-12-27T10:09:35.253Z,71.10
2022-12-27T10:12:40.085Z,71.30
2022-12-27T10:15:07.027Z,71.23
2022-12-27T10:17:53.599Z,70.83
2022-12-27T10:20:45.917Z,70.35
2022-12-27T10:23:19.295Z,70.39
2022-12-27T10:25:47.758Z,70.30
2022-12-27T10:28:25.645Z,70.02
2022-12-27T10:30:53.129Z,69.66
2022-12-27T10:33:25.450Z,69.16
2022-12-27T10:35:52.693Z,69.37
2022-12-27T10:38:20.746Z,68.72
2022-12-27T10:41:32.178Z,67.93
2022-12-27T10:43:59.799Z,67.63
2022-12-27T10:46:33.001Z,67.42
2022-12-27T10:51:52.440Z,66.86
2022-12-27T10:54:27.395Z,66.93
2022-12-27T10:56:55.689Z,66.67
2022-12-27T10:59:25.908Z,66.76
2022-12-27T11:02:19.044Z,66.63
2022-12-27T11:04:58.098Z,66.46
2022-12-27T11:07:33.835Z,65.85
2022-12-27T11:10:15.727Z,65.71
2022-12-27T11:13:03.590Z,65.61
2022-12-27T11:15:34.850Z,65.38
2022-12-27T11:18:10.113Z,64.75
2022-12-27T11:20:44.897Z,65.56
2022-12-27T11:23:15.447Z,65.16
2022-12-27T11:26:04.416Z,64.66
2022-12-27T11:28:42.566Z,64.42
2022-12-27T11:31:13.187Z,64.63
2022-12-27T11:33:52.086Z,64.35
2022-12-27T11:36:31.304Z,64.45
2022-12-27T11:39:00.721Z,64.53
2022-12-27T11:41:46.859Z,64.23
2022-12-27T11:44:22.344Z,63.83
2022-12-27T11:47:01.598Z,63.37
2022-12-27T11:49:34.276Z,62.75
2022-12-27T11:52:10.439Z,62.93
2022-12-27T11:55:05.010Z,62.43
2022-12-27T11:57:53.312Z,62.54
2022-12-27T12:00:27.107Z,61.86
2022-12-27T12:03:41.934Z,61.74
2022-12-27T12:06:24.097Z,61.49
2022-12-27T12:09:15.103Z,61.45
2022-12-27T12:12:23.891Z,61.28
2022-12-27T12:15:03.137Z,61.58
2022-12-27T12:17:58.596Z,61.45
2022-12-27T12:20:45.704Z,60.97
2022-12-27T12:23:51.829Z,60.67
2022-12-27T12:26:46.071Z,60.71
2022-12-27T12:29:50.226Z,61.17
2022-12-27T12:32:43.279Z,60.79
2022-12-27T12:35:25.735Z,60.56
2022-12-27T12:38:11.354Z,60.27
2022-12-27T12:41:09.385Z,60.12
2022-12-27T12:44:03.497Z,60.35
2022-12-27T12:46:38.903Z,60.41
2022-12-27T12:49:28.219Z,60.05
2022-12-27T12:52:22.081Z,59.94
2022-12-27T12:55:01.359Z,59.71
2022-12-27T12:58:08.688Z,59.59
2022-12-27T13:00:42.723Z,59.46
2022-12-27T13:03:31.539Z,59.80
2022-12-27T13:06:12.769Z,60.65
2022-12-27T13:08:56.558Z,60.65
2022-12-27T13:11:47.815Z,61.21
2022-12-27T13:14:41.017Z,61.65
2022-12-27T13:17:28.390Z,62.08
2022-12-27T13:19:58.721Z,62.26
2022-12-27T13:22:48.825Z,62.16
2022-12-27T13:25:22.348Z,63.10
2022-12-27T13:28:13.707Z,63.19
2022-12-27T13:31:00.916Z,63.54
2022-12-27T13:33:39.720Z,64.13
2022-12-27T13:36:28.125Z,64.53
2022-12-27T13:39:19.008Z,64.10
2022-12-27T13:42:13.746Z,65.06
2022-12-27T13:45:09.430Z,64.82
2022-12-27T13:47:39.766Z,64.93
2022-12-27T13:50:09.805Z,65.37
2022-12-27T13:52:43.125Z,65.02
2022-12-27T13:55:43.433Z,64.99
2022-12-27T13:58:52.491Z,65.14
2022-12-27T14:01:29.287Z,65.04
2022-12-27T14:04:14.802Z,65.25
2022-12-27T14:07:13.078Z,66.36
2022-12-27T14:10:16.499Z,66.62
2022-12-27T14:13:09.441Z,67.31
2022-12-27T14:15:42.839Z,67.94
2022-12-27T14:18:35.006Z,68.16
2022-12-27T14:21:19.044Z,68.07
2022-12-27T14:23:55.103Z,68.30
2022-12-27T14:26:47.165Z,68.77
2022-12-27T14:29:52.064Z,69.02
2022-12-27T14:32:46.365Z,69.58
2022-12-27T14:35:27.952Z,69.90
2022-12-27T14:38:13.170Z,70.22
2022-12-27T14:41:18.794Z,70.86
2022-12-27T14:43:57.612Z,71.52
2022-12-27T14:46:59.753Z,72.49
2022-12-27T14:49:33.212Z,71.99
2022-12-27T14:52:43.249Z,72.24
2022-12-27T14:55:47.835Z,73.25
2022-12-27T14:58:47.671Z,73.62
2022-12-27T15:01:49.998Z,74.07
2022-12-27T15:04:32.112Z,74.11
2022-12-27T15:07:11.180Z,74.26
2022-12-27T15:10:03.235Z,74.77
2022-12-27T15:12:43.710Z,75.33
2022-12-27T15:15:15.483Z,75.94
2022-12-27T15:18:15.914Z,76.45
2022-12-27T15:20:45.833Z,76.73
2022-12-27T15:23:30.730Z,76.98
2022-12-27T15:26:05.987Z,76.64
2022-12-27T15:28:48.698Z,76.50
2022-12-27T15:31:29.795Z,76.20
2022-12-27T15:34:34.544Z,75.85
2022-12-27T15:37:02.069Z,75.51
2022-12-27T15:39:35.078Z,75.17
2022-12-27T15:42:46.502Z,75.11
2022-12-27T15:45:37.713Z,75.35
2022-12-27T15:48:42.550Z,75.60
2022-12-27T15:51:29.288Z,76.08
2022-12-27T15:54:31.120Z,75.96
2022-12-27T15:57:19.921Z,76.46
2022-12-27T15:59:51.807Z,76.20
2022-12-27T16:02:53.696Z,75.59
2022-12-27T16:05:21.917Z,75.47
2022-12-27T16:08:13.386Z,74.79
2022-12-27T16:10:40.980Z,74.43
2022-12-27T16:13:10.848Z,74.15
2022-12-27T16:15:39.126Z,73.75
2022-12-27T16:18:33.105Z,73.10
2022-12-27T16:21:19.085Z,72.74
2022-12-27T16:23:45.920Z,71.68
2022-12-27T16:26:15.905Z,71.59
2022-12-27T16:28:53.374Z,71.13
2022-12-27T16:31:24.638Z,71.05
2022-12-27T16:33:53.772Z,70.84
2022-12-27T16:36:22.983Z,70.46
2022-12-27T16:39:17.746Z,70.57
2022-12-27T16:41:57.129Z,70.38
2022-12-27T16:44:24.100Z,70.43
2022-12-27T16:46:59.445Z,70.46
2022-12-27T16:49:29.891Z,70.93
2022-12-27T16:52:25.607Z,71.04
2022-12-27T16:55:05.030Z,71.84
2022-12-27T16:57:47.980Z,71.56
2022-12-27T17:00:37.209Z,72.18
2022-12-27T17:03:23.129Z,72.28
2022-12-27T17:06:30.727Z,72.42
2022-12-27T17:08:38.937Z,72.32
2022-12-27T17:11:14.972Z,72.12
2022-12-27T17:13:55.303Z,71.70
2022-12-27T17:16:26.249Z,71.00
2022-12-27T17:18:57.934Z,71.12
2022-12-27T17:21:30.875Z,70.73
2022-12-27T17:24:01.079Z,70.66
2022-12-27T17:27:01.789Z,70.10
2022-12-27T17:29:47.605Z,70.51
2022-12-27T17:32:51.556Z,70.73
2022-12-27T17:35:31.963Z,70.27
2022-12-27T17:38:18.354Z,70.74
2022-12-27T17:41:15.102Z,70.57
2022-12-27T17:44:17.053Z,70.95
2022-12-27T17:47:15.236Z,71.19
2022-12-27T17:49:43.281Z,71.52
2022-12-27T17:52:38.118Z,71.04
2022-12-27T17:55:35.652Z,70.00
2022-12-27T17:58:06.548Z,69.17
2022-12-27T18:00:37.798Z,69.47
2022-12-27T18:03:11.951Z,69.44
2022-12-27T18:05:43.921Z,68.60
2022-12-27T18:08:25.294Z,68.19
2022-12-27T18:10:52.306Z,67.43
2022-12-27T18:13:22.759Z,67.46
2022-12-27T18:15:50.684Z,66.84
2022-12-27T18:18:29.432Z,66.43
2022-12-27T18:20:59.827Z,65.89
2022-12-27T18:23:27.008Z,66.53
2022-12-27T18:25:57.521Z,66.45
2022-12-27T18:28:35.074Z,66.63
2022-12-27T18:31:40.730Z,66.40
2022-12-27T18:34:13.361Z,65.73
2022-12-27T18:36:46.857Z,66.14
2022-12-27T18:39:28.986Z,66.01
2022-12-27T18:41:58.298Z,65.91
2022-12-27T18:44:29.647Z,65.70
2022-12-27T18:47:00.574Z,65.58
2022-12-27T18:49:37.893Z,65.29
2022-12-27T18:52:14.024Z,64.89
2022-12-27T18:54:41.178Z,64.80
2022-12-27T18:57:31.987Z,64.42
2022-12-27T19:00:19.208Z,64.57
2022-12-27T19:02:46.304Z,64.39
2022-12-27T19:05:13.196Z,64.36
2022-12-27T19:07:41.770Z,64.24
2022-12-27T19:10:20.839Z,64.07
2022-12-27T19:12:48.485Z,64.16
2022-12-27T19:15:18.438Z,64.17
2022-12-27T19:17:53.289Z,64.16
2022-12-27T19:20:29.643Z,64.20
2022-12-27T19:22:59.381Z,64.58
2022-12-27T19:25:30.939Z,64.39
2022-12-27T19:28:05.195Z,64.28
2022-12-27T19:30:46.193Z,64.30
2022-12-27T19:33:20.823Z,64.49
2022-12-27T19:35:47.930Z,64.72
2022-12-27T19:38:20.807Z,64.89
2022-12-27T19:40:50.319Z,65.01
2022-12-27T19:43:18.372Z,65.25
2022-12-27T19:45:45.783Z,65.33
2022-12-27T19:48:12.887Z,66.11
2022-12-27T19:50:50.569Z,66.32
2022-12-27T19:53:21.024Z,66.89
2022-12-27T19:55:48.389Z,66.85
2022-12-27T19:58:21.900Z,66.50
2022-12-27T20:00:49.238Z,66.56
2022-12-27T20:03:16.558Z,66.39
2022-12-27T20:06:13.765Z,65.99
2022-12-27T20:08:44.789Z,65.84
2022-12-27T20:11:15.525Z,66.16
2022-12-27T20:13:42.678Z,66.09
2022-12-27T20:16:12.418Z,65.48
2022-12-27T20:18:40.902Z,65.46
2022-12-27T20:21:11.352Z,65.27
2022-12-27T20:23:38.834Z,65.37
2022-12-27T20:26:05.783Z,65.27
2022-12-27T20:28:33.180Z,65.08
2022-12-27T20:31:05.792Z,65.19
2022-12-27T20:33:33.037Z,65.23
2022-12-27T20:35:59.963Z,65.32
2022-12-27T20:38:27.348Z,65.61
2022-12-27T20:40:54.311Z,65.68
2022-12-27T20:43:21.425Z,65.74
2022-12-27T20:45:48.745Z,66.11
2022-12-27T20:48:15.791Z,66.21
2022-12-27T20:50:42.633Z,66.59
2022-12-27T20:53:09.751Z,67.23
2022-12-27T20:55:36.785Z,67.22
2022-12-27T20:58:05.979Z,66.77
2022-12-27T21:00:32.999Z,66.96
2022-12-27T21:03:00.287Z,67.18
2022-12-27T21:05:27.697Z,67.27
2022-12-27T21:07:54.762Z,67.39
2022-12-27T21:10:21.751Z,67.49
2022-12-27T21:12:48.697Z,68.17
2022-12-27T21:15:17.618Z,68.42
2022-12-27T21:17:44.630Z,68.92
2022-12-27T21:20:12.083Z,69.35
2022-12-27T21:22:39.325Z,69.62
2022-12-27T21:25:06.608Z,70.07
2022-12-27T21:27:33.706Z,70.25
2022-12-27T21:30:00.802Z,70.22
2022-12-27T21:32:27.722Z,70.31
2022-12-27T21:34:54.913Z,71.28
2022-12-27T21:37:22.071Z,72.78
2022-12-27T21:39:49.048Z,73.04
2022-12-27T21:42:16.004Z,74.11
2022-12-27T21:44:42.896Z,74.95
2022-12-27T21:47:09.936Z,75.14
2022-12-27T21:49:40.470Z,75.16
2022-12-27T21:52:07.665Z,76.05
2022-12-27T21:54:35.420Z,78.76
2022-12-27T21:57:03.236Z,78.74
2022-12-27T21:59:30.144Z,79.52
2022-12-27T22:01:57.395Z,80.14
2022-12-27T22:04:24.527Z,80.13
2022-12-27T22:06:51.505Z,81.10
2022-12-27T22:09:19.372Z,80.18
2022-12-27T22:11:47.683Z,79.57
2022-12-27T22:14:14.932Z,79.29
2022-12-27T22:16:42.072Z,78.36
2022-12-27T22:19:12.149Z,78.56
2022-12-27T22:21:41.293Z,80.21
2022-12-27T22:24:12.933Z,80.42
2022-12-27T22:26:41.898Z,79.66
2022-12-27T22:29:08.983Z,79.62
2022-12-27T22:31:37.806Z,79.40
2022-12-27T22:34:05.732Z,79.55
2022-12-27T22:36:33.279Z,79.46
2022-12-27T22:39:00.638Z,79.88
2022-12-27T22:41:34.227Z,80.12
2022-12-27T22:44:11.720Z,80.63
2022-12-27T22:47:07.016Z,80.53
2022-12-27T22:49:26.502Z,80.53
2022-12-27T22:51:53.449Z,80.71
2022-12-27T22:54:20.495Z,80.23
2022-12-27T22:57:07.458Z,80.07
2022-12-27T22:59:34.390Z,80.14
2022-12-27T23:02:01.658Z,80.11
2022-12-27T23:04:28.826Z,80.33
2022-12-27T23:06:55.911Z,80.59
2022-12-27T23:09:22.819Z,79.90
2022-12-27T23:11:49.843Z,79.89
2022-12-27T23:14:17.089Z,79.87
2022-12-27T23:16:46.491Z,80.05
2022-12-27T23:19:16.636Z,80.39
2022-12-27T23:21:43.716Z,81.86
2022-12-27T23:24:11.354Z,81.46
2022-12-27T23:26:39.539Z,81.05
2022-12-27T23:29:07.176Z,81.37
2022-12-27T23:31:35.457Z,81.17
2022-12-27T23:34:27.650Z,81.71
2022-12-27T23:36:59.418Z,81.94
2022-12-27T23:39:26.597Z,83.04
2022-12-27T23:41:53.669Z,83.11
2022-12-27T23:44:34.198Z,82.78
2022-12-27T23:47:06.348Z,82.86
2022-12-27T23:49:34.037Z,82.77
2022-12-27T23:52:01.033Z,82.37
2022-12-27T23:54:28.101Z,82.74
2022-12-27T23:56:54.971Z,82.59
2022-12-27T23:59:21.935Z,82.51
